Time;durP1;ratioP1;P1;durP2;ratioP2;P2;SDS_P1;SDS_P2;PMS_P1;PMS_P2;Temp;Humidity;BMP_temperature;BMP_pressure;BME280_temperature;BME280_humidity;BME280_pressure;Samples;Min_cycle;Max_cycle;Signal;HPM_P1;HPM_P2
2022/06/13 00:00:31;;;;;;;8.53;1.87;;;;;;;22.26;42.25;100801.88;5090212;28;20240;-68
2022/06/13 00:02:59;;;;;;;6.23;1.57;;;;;;;22.25;42.44;100801.06;5088714;28;20750;-68
2022/06/13 00:05:33;;;;;;;7.00;1.83;;;;;;;22.24;42.68;100787.78;5089649;28;20205;-66
2022/06/13 00:08:01;;;;;;;5.97;1.80;;;;;;;22.22;42.69;100789.88;5087893;28;20201;-67
2022/06/13 00:10:28;;;;;;;8.10;2.17;;;;;;;22.19;42.66;100795.69;5089624;28;20214;-67
2022/06/13 00:12:56;;;;;;;6.93;1.97;;;;;;;22.18;42.78;100791.31;5087370;28;20309;-68
2022/06/13 00:15:24;;;;;;;6.60;1.80;;;;;;;22.14;43.35;100797.19;5086718;28;20203;-68
2022/06/13 00:17:53;;;;;;;6.30;1.63;;;;;;;22.12;43.39;100795.72;5084812;28;20211;-68
2022/06/13 00:20:22;;;;;;;8.03;1.83;;;;;;;22.08;43.61;100789.09;5082052;28;20215;-67
2022/06/13 00:22:51;;;;;;;6.43;1.80;;;;;;;22.05;43.75;100790.38;5082740;28;20218;-68
2022/06/13 00:25:19;;;;;;;10.30;2.33;;;;;;;21.97;44.10;100793.31;5085152;28;20258;-68
2022/06/13 00:27:48;;;;;;;8.17;1.50;;;;;;;21.92;44.12;100797.66;5084860;28;20207;-68
2022/06/13 00:30:15;;;;;;;8.90;2.10;;;;;;;21.86;44.44;100795.81;5083853;28;20706;-68
2022/06/13 00:32:45;;;;;;;7.50;1.80;;;;;;;21.78;44.47;100802.28;5085004;28;20203;-67
2022/06/13 00:35:14;;;;;;;7.57;2.00;;;;;;;21.72;44.70;100806.66;5084945;28;20804;-67
2022/06/13 00:37:42;;;;;;;7.30;2.27;;;;;;;21.69;44.65;100812.50;5084303;28;20621;-67
2022/06/13 00:40:11;;;;;;;11.67;2.27;;;;;;;21.65;44.89;100819.34;5085268;28;20289;-67
2022/06/13 00:42:40;;;;;;;7.63;2.10;;;;;;;21.61;44.80;100822.69;5085189;28;20784;-67
2022/06/13 00:45:19;;;;;;;9.17;2.20;;;;;;;21.55;44.70;100824.34;5085397;28;20226;-67
2022/06/13 00:47:49;;;;;;;6.03;2.13;;;;;;;21.52;44.86;100827.50;5084044;28;20209;-67
2022/06/13 00:50:24;;;;;;;8.03;2.00;;;;;;;21.45;44.86;100825.84;5086719;28;20238;-67
2022/06/13 00:52:57;;;;;;;10.33;1.97;;;;;;;21.39;44.95;100825.63;5082860;28;20665;-67
2022/06/13 00:55:30;;;;;;;10.67;1.80;;;;;;;21.38;44.88;100831.22;5086111;28;20207;-67
2022/06/13 00:58:01;;;;;;;7.87;1.90;;;;;;;21.33;45.01;100825.66;5084217;28;20206;-67
2022/06/13 01:00:30;;;;;;;6.90;1.77;;;;;;;21.32;45.36;100824.81;5081486;28;20298;-67
2022/06/13 01:03:01;;;;;;;7.47;1.93;;;;;;;21.30;45.02;100824.19;5084693;28;20272;-67
2022/06/13 01:05:34;;;;;;;7.90;2.10;;;;;;;21.29;44.89;100817.13;5086532;28;20226;-67
2022/06/13 01:08:05;;;;;;;7.37;1.90;;;;;;;21.28;45.31;100815.50;5088232;28;20206;-67
2022/06/13 01:13:20;;;;;;;8.40;2.10;;;;;;;21.28;44.99;100815.50;5087118;28;20213;-68
2022/06/13 01:16:04;;;;;;;7.00;1.93;;;;;;;21.21;45.33;100817.34;5083124;28;20604;-67
2022/06/13 01:18:57;;;;;;;13.83;2.37;;;;;;;21.19;45.86;100816.75;5082130;28;20242;-67
2022/06/13 01:21:34;;;;;;;7.67;1.80;;;;;;;21.18;46.05;100815.09;5083846;28;20209;-67
2022/06/13 01:24:38;;;;;;;8.30;2.20;;;;;;;21.18;46.00;100820.50;5081686;28;20655;-67
2022/06/13 01:27:39;;;;;;;8.50;2.13;;;;;;;21.12;46.31;100813.19;5083109;28;20207;-67
2022/06/13 01:30:43;;;;;;;7.27;2.03;;;;;;;21.12;46.57;100807.78;5050684;28;20228;-67
2022/06/13 01:33:20;;;;;;;5.97;2.27;;;;;;;21.08;46.82;100814.66;5081240;28;20207;-66
2022/06/13 01:35:57;;;;;;;5.30;1.70;;;;;;;21.07;47.14;100820.25;5085945;28;20200;-67
2022/06/13 01:38:39;;;;;;;7.50;2.20;;;;;;;21.01;46.94;100819.22;5083947;28;20203;-68
2022/06/13 01:41:16;;;;;;;6.83;2.00;;;;;;;21.01;47.08;100821.91;5083629;28;20337;-68
2022/06/13 01:43:53;;;;;;;9.57;2.13;;;;;;;20.99;47.69;100818.59;5081450;28;20301;-67
2022/06/13 01:46:33;;;;;;;11.60;2.43;;;;;;;20.99;47.26;100826.69;5082573;28;20202;-67
2022/06/13 01:49:17;;;;;;;9.73;2.40;;;;;;;20.95;47.54;100825.44;5085331;28;20279;-67
2022/06/13 01:51:53;;;;;;;6.90;2.20;;;;;;;20.97;47.61;100828.75;5062020;28;20204;-67
2022/06/13 01:54:28;;;;;;;7.83;2.00;;;;;;;20.94;47.63;100829.16;5060239;28;20612;-67
2022/06/13 01:57:07;;;;;;;7.60;2.20;;;;;;;20.94;47.96;100835.38;5063678;28;20241;-67
2022/06/13 01:59:45;;;;;;;6.27;2.23;;;;;;;20.93;48.09;100835.59;5065443;28;20304;-67
2022/06/13 02:02:22;;;;;;;6.83;1.80;;;;;;;20.92;47.85;100836.63;5064930;28;20736;-66
2022/06/13 02:04:59;;;;;;;8.90;2.47;;;;;;;20.87;48.14;100841.81;5062271;28;20594;-66
2022/06/13 02:07:31;;;;;;;8.40;2.33;;;;;;;20.87;48.00;100834.56;5061268;28;20692;-66
2022/06/13 02:10:03;;;;;;;8.43;2.10;;;;;;;20.86;48.09;100834.75;5063395;28;20221;-66
2022/06/13 02:12:33;;;;;;;8.00;1.83;;;;;;;20.85;48.22;100833.09;5065506;28;20211;-67
2022/06/13 02:15:07;;;;;;;7.03;2.23;;;;;;;20.82;48.62;100837.06;5063757;28;20266;-67
2022/06/13 02:17:43;;;;;;;8.87;2.43;;;;;;;20.76;48.53;100840.53;5064220;28;20199;-67
2022/06/13 02:20:16;;;;;;;6.60;2.47;;;;;;;20.74;48.56;100839.13;5064669;28;20254;-66
2022/06/13 02:22:48;;;;;;;7.20;2.10;;;;;;;20.74;48.73;100839.94;5062965;28;20227;-67
2022/06/13 02:25:20;;;;;;;9.70;2.50;;;;;;;20.68;48.65;100840.75;5063982;28;20247;-67
2022/06/13 02:27:52;;;;;;;10.27;2.40;;;;;;;20.64;48.99;100840.34;5065565;28;20206;-67
2022/06/13 02:30:22;;;;;;;5.87;2.27;;;;;;;20.61;49.05;100832.66;5062369;28;20772;-67
2022/06/13 02:32:56;;;;;;;7.73;2.20;;;;;;;20.57;48.93;100839.50;5063172;28;20207;-67
2022/06/13 02:35:29;;;;;;;6.70;1.70;;;;;;;20.55;49.17;100841.56;5062653;28;20250;-67
2022/06/13 02:38:01;;;;;;;6.77;1.97;;;;;;;20.53;48.91;100838.25;5061571;28;20239;-67
2022/06/13 02:40:33;;;;;;;9.03;2.20;;;;;;;20.48;49.41;100840.72;5058972;28;20667;-67
2022/06/13 02:43:06;;;;;;;6.70;2.10;;;;;;;20.46;49.24;100842.78;5061787;28;20261;-67
2022/06/13 02:45:40;;;;;;;6.80;1.93;;;;;;;20.45;49.33;100840.28;5061061;28;20302;-68
2022/06/13 02:48:14;;;;;;;7.93;1.97;;;;;;;20.44;49.26;100838.63;5060607;28;20209;-67
2022/06/13 02:50:48;;;;;;;9.07;2.20;;;;;;;20.43;49.18;100843.19;5073830;28;20298;-67
2022/06/13 02:53:23;;;;;;;7.40;2.23;;;;;;;20.40;49.22;100840.91;5083748;28;20263;-67
2022/06/13 02:56:02;;;;;;;9.10;2.10;;;;;;;20.37;49.26;100833.22;5086357;28;20288;-67
2022/06/13 02:58:37;;;;;;;9.07;2.47;;;;;;;20.33;49.59;100837.31;5083511;28;20287;-67
2022/06/13 03:01:12;;;;;;;7.10;2.10;;;;;;;20.33;49.43;100840.00;5087004;28;20202;-68
2022/06/13 03:03:48;;;;;;;8.57;2.37;;;;;;;20.31;49.76;100841.28;5087089;28;20206;-68
2022/06/13 03:06:22;;;;;;;5.90;2.10;;;;;;;20.30;49.46;100840.44;5084546;28;20253;-68
2022/06/13 03:09:02;;;;;;;6.43;2.50;;;;;;;20.29;49.42;100844.16;5088855;28;20312;-68
2022/06/13 03:11:48;;;;;;;7.80;2.57;;;;;;;20.28;49.64;100842.50;5081199;28;20689;-64
2022/06/13 03:14:23;;;;;;;8.07;2.33;;;;;;;20.24;49.39;100850.13;5086377;28;20214;-66
2022/06/13 03:16:57;;;;;;;7.77;2.33;;;;;;;20.22;49.34;100849.53;5084303;28;20220;-64
2022/06/13 03:19:31;;;;;;;13.37;2.63;;;;;;;20.25;49.70;100857.19;5084491;28;20574;-64
2022/06/13 03:22:05;;;;;;;6.80;2.00;;;;;;;20.22;49.24;100857.59;5086853;28;20198;-66
2022/06/13 03:24:41;;;;;;;7.97;2.23;;;;;;;20.20;49.29;100869.59;5083084;28;20573;-66
2022/06/13 03:27:16;;;;;;;6.67;2.10;;;;;;;20.19;49.12;100865.25;5085021;28;20345;-64
2022/06/13 03:29:48;;;;;;;8.57;2.70;;;;;;;20.21;49.06;100865.88;5082896;28;20312;-64
2022/06/13 03:32:21;;;;;;;8.77;2.47;;;;;;;20.17;49.43;100870.81;5083251;28;20630;-64
2022/06/13 03:34:56;;;;;;;10.23;2.57;;;;;;;20.15;49.56;100882.81;5082657;28;20558;-64
2022/06/13 03:37:30;;;;;;;6.67;2.17;;;;;;;20.13;49.40;100879.53;5078905;28;20204;-64
2022/06/13 03:40:03;;;;;;;8.73;1.83;;;;;;;20.14;49.02;100887.38;5083695;28;20203;-64
2022/06/13 03:42:38;;;;;;;7.30;2.17;;;;;;;20.14;48.97;100886.56;5082377;28;20301;-64
2022/06/13 03:45:11;;;;;;;4.87;1.90;;;;;;;20.12;48.80;100899.41;5084482;28;20306;-64
2022/06/13 03:47:44;;;;;;;5.20;1.80;;;;;;;20.12;48.82;100904.78;5082285;28;20286;-64
2022/06/13 03:50:19;;;;;;;6.37;2.13;;;;;;;20.13;48.61;100901.91;5085460;28;20321;-64
2022/06/13 03:52:53;;;;;;;9.07;2.20;;;;;;;20.12;48.42;100899.41;5095706;28;20711;-64
2022/06/13 03:55:28;;;;;;;8.93;2.43;;;;;;;20.12;48.59;100910.16;5090971;28;20215;-64
2022/06/13 03:58:01;;;;;;;9.40;2.00;;;;;;;20.09;48.90;100910.56;5089815;28;20251;-64
2022/06/13 04:00:34;;;;;;;4.20;1.70;;;;;;;20.10;48.68;100902.28;5094972;28;20203;-64
2022/06/13 04:03:03;;;;;;;6.13;2.00;;;;;;;20.10;48.69;100896.06;5090294;28;20318;-64
2022/06/13 04:05:37;;;;;;;6.27;1.97;;;;;;;20.10;48.43;100901.44;5091407;28;20582;-65
2022/06/13 04:08:08;;;;;;;9.73;2.30;;;;;;;20.10;48.78;100901.44;5093120;28;20206;-65
2022/06/13 04:10:48;;;;;;;7.50;2.00;;;;;;;20.12;48.89;100904.78;5084991;28;20226;-65
2022/06/13 04:13:37;;;;;;;5.77;1.80;;;;;;;20.12;48.37;100911.00;5084647;28;20210;-65
2022/06/13 04:16:24;;;;;;;8.57;3.17;;;;;;;20.13;48.69;100917.22;5087096;28;20235;-65
2022/06/13 04:19:08;;;;;;;9.33;2.23;;;;;;;20.13;48.46;100918.03;5088537;28;20206;-65
2022/06/13 04:21:48;;;;;;;8.57;2.33;;;;;;;20.12;48.54;100915.53;5087826;28;20203;-65
2022/06/13 04:24:24;;;;;;;5.40;2.23;;;;;;;20.15;48.56;100915.13;5084986;28;20659;-65
2022/06/13 04:26:57;;;;;;;5.33;1.87;;;;;;;20.12;48.72;100919.06;5088284;28;20336;-65
2022/06/13 04:29:30;;;;;;;7.57;2.07;;;;;;;20.12;48.62;100924.47;5087481;28;20233;-65
2022/06/13 04:32:03;;;;;;;7.47;2.10;;;;;;;20.14;48.82;100924.25;5085837;28;20199;-65
2022/06/13 04:34:41;;;;;;;5.47;2.17;;;;;;;20.11;49.02;100927.34;5091748;28;20214;-66
2022/06/13 04:37:12;;;;;;;6.03;1.93;;;;;;;20.11;48.78;100916.56;5090870;28;20237;-65
2022/06/13 04:39:43;;;;;;;8.27;2.00;;;;;;;20.13;49.10;100926.13;5091809;28;20583;-65
2022/06/13 04:42:14;;;;;;;5.50;2.07;;;;;;;20.13;48.87;100922.59;5092753;28;20207;-65
2022/06/13 04:44:45;;;;;;;6.43;2.30;;;;;;;20.12;48.84;100921.75;5086443;28;20207;-65
2022/06/13 04:47:15;;;;;;;6.03;2.37;;;;;;;20.10;48.91;100933.75;5082880;28;20348;-65
2022/06/13 04:49:48;;;;;;;8.27;1.87;;;;;;;20.12;48.90;100929.84;5086905;28;20330;-65
2022/06/13 04:52:20;;;;;;;6.07;1.90;;;;;;;20.14;49.09;100935.03;5084549;28;20207;-65
2022/06/13 04:54:55;;;;;;;6.63;2.10;;;;;;;20.15;49.15;100931.28;5082984;28;20267;-65
2022/06/13 04:57:23;;;;;;;12.93;3.03;;;;;;;20.15;48.79;100933.97;5086564;28;20207;-65
2022/06/13 04:59:51;;;;;;;7.20;1.80;;;;;;;20.15;48.78;100937.50;5084437;28;20662;-65
2022/06/13 05:02:23;;;;;;;9.33;2.67;;;;;;;20.16;48.94;100947.25;5083283;28;20374;-65
2022/06/13 05:04:51;;;;;;;8.90;2.23;;;;;;;20.15;49.12;100947.44;5082495;28;20706;-65
2022/06/13 05:07:23;;;;;;;6.70;2.47;;;;;;;20.17;49.88;100953.47;5085709;28;20321;-65
2022/06/13 05:09:55;;;;;;;10.07;2.30;;;;;;;20.14;49.43;100954.69;5082839;28;20217;-66
2022/06/13 05:12:29;;;;;;;9.20;2.60;;;;;;;20.14;49.46;100954.69;5083564;28;20234;-65
2022/06/13 05:15:01;;;;;;;6.47;2.13;;;;;;;20.17;49.79;100961.53;5085953;28;20206;-65
2022/06/13 05:17:55;;;;;;;6.53;2.50;;;;;;;20.22;49.36;100964.47;5084939;28;20203;-66
2022/06/13 05:20:33;;;;;;;9.03;2.10;;;;;;;20.31;49.55;100963.28;5084885;28;20209;-66
2022/06/13 05:23:16;;;;;;;5.87;1.70;;;;;;;20.40;49.39;100962.13;5082973;28;20215;-65
2022/06/13 05:25:46;;;;;;;8.80;1.90;;;;;;;20.45;49.32;100966.91;5083141;28;20574;-65
2022/06/13 05:28:18;;;;;;;7.00;2.20;;;;;;;20.48;48.72;100970.03;5085273;28;20729;-65
2022/06/13 05:30:48;;;;;;;9.60;2.10;;;;;;;20.48;48.83;100975.41;5083138;28;20237;-66
2022/06/13 05:33:19;;;;;;;8.23;2.33;;;;;;;20.49;49.21;100971.66;5084263;28;20296;-65
2022/06/13 05:35:52;;;;;;;7.20;2.20;;;;;;;20.55;49.04;100976.28;5086746;28;20297;-65
2022/06/13 05:38:30;;;;;;;10.13;2.17;;;;;;;20.56;48.90;100967.16;5085981;28;20206;-65
2022/06/13 05:40:58;;;;;;;11.97;2.37;;;;;;;20.57;48.62;100974.22;5088059;28;20211;-65
2022/06/13 05:43:26;;;;;;;7.70;2.30;;;;;;;20.58;48.22;100975.84;5085315;28;20207;-65
2022/06/13 05:45:54;;;;;;;8.53;2.20;;;;;;;20.56;48.62;100977.94;5083872;28;20203;-65
2022/06/13 05:48:24;;;;;;;7.57;2.20;;;;;;;20.63;48.52;100984.19;5082793;28;20309;-65
2022/06/13 05:50:52;;;;;;;10.13;2.00;;;;;;;20.65;48.36;100978.59;5082732;28;20248;-66
2022/06/13 05:53:25;;;;;;;8.50;2.50;;;;;;;20.70;48.17;100980.66;5088006;28;20210;-65
2022/06/13 05:55:56;;;;;;;7.20;1.77;;;;;;;20.65;48.27;100984.81;5086915;28;20241;-65
2022/06/13 05:58:25;;;;;;;7.30;2.27;;;;;;;20.67;47.93;100984.59;5086877;28;20570;-66
2022/06/13 06:00:57;;;;;;;6.80;2.37;;;;;;;20.73;48.07;100983.81;5085491;28;20214;-64
2022/06/13 06:03:26;;;;;;;6.37;1.93;;;;;;;20.79;48.00;100991.06;5087152;28;20655;-66
2022/06/13 06:05:55;;;;;;;7.60;2.23;;;;;;;20.82;47.80;100987.16;5085713;28;20263;-65
2022/06/13 06:08:26;;;;;;;8.00;2.47;;;;;;;20.88;47.13;100991.72;5084763;28;20960;-66
2022/06/13 06:10:55;;;;;;;11.73;2.50;;;;;;;20.90;47.11;101001.28;5086099;28;20206;-65
2022/06/13 06:13:24;;;;;;;7.47;2.37;;;;;;;20.94;46.66;100996.28;5081684;28;20217;-65
2022/06/13 06:15:53;;;;;;;7.10;2.40;;;;;;;20.96;46.91;100996.94;5082065;28;20523;-65
2022/06/13 06:18:22;;;;;;;8.43;2.60;;;;;;;20.97;47.16;100990.50;5080947;28;20207;-65
2022/06/13 06:20:50;;;;;;;9.80;2.20;;;;;;;20.98;47.23;100997.56;5080154;28;20274;-66
2022/06/13 06:23:18;;;;;;;7.63;2.03;;;;;;;21.02;46.51;100993.44;5076990;28;20667;-66
2022/06/13 06:25:48;;;;;;;6.13;2.30;;;;;;;21.10;46.43;100995.13;5084955;28;20242;-66
2022/06/13 06:28:18;;;;;;;7.60;2.13;;;;;;;21.14;46.38;100993.66;5081669;28;20345;-66
2022/06/13 06:30:46;;;;;;;10.50;2.13;;;;;;;21.19;46.32;100997.44;5080463;28;20348;-66
2022/06/13 06:33:17;;;;;;;11.90;2.57;;;;;;;21.23;46.29;100998.69;5079093;28;20203;-66
2022/06/13 06:35:45;;;;;;;10.50;2.30;;;;;;;21.24;45.95;101000.34;5082708;28;20305;-66
2022/06/13 06:38:13;;;;;;;8.63;2.30;;;;;;;21.29;45.87;101007.81;5082642;28;20611;-66
2022/06/13 06:40:40;;;;;;;7.43;2.60;;;;;;;21.33;45.89;101006.38;5082292;28;20203;-66
2022/06/13 06:43:10;;;;;;;12.93;4.10;;;;;;;21.37;45.72;101007.63;5082981;28;20221;-66
2022/06/13 06:45:38;;;;;;;6.90;2.23;;;;;;;21.36;46.03;101009.50;5083017;28;20202;-66
2022/06/13 06:48:07;;;;;;;13.03;3.03;;;;;;;21.38;45.91;101012.81;5083938;28;20223;-66
2022/06/13 06:50:35;;;;;;;11.57;2.80;;;;;;;21.46;45.67;101011.78;5080996;28;20671;-65
2022/06/13 06:53:03;;;;;;;7.27;2.50;;;;;;;21.49;45.13;101015.94;5083261;28;20293;-68
2022/06/13 07:01:08;;;;;;;4.93;2.07;;;;;;;21.63;44.60;101018.47;5075758;28;20325;-66
2022/06/13 07:03:36;;;;;;;8.83;2.40;;;;;;;21.68;44.43;101023.22;5079627;28;20207;-66
2022/06/13 07:06:06;;;;;;;10.43;2.57;;;;;;;21.66;44.59;101020.72;5083068;28;20690;-66
2022/06/13 07:08:34;;;;;;;8.47;2.53;;;;;;;21.71;43.99;101014.72;5083380;28;20222;-66
2022/06/13 07:13:53;;;;;;;8.50;2.27;;;;;;;21.78;43.70;101012.84;5071722;28;20218;-67
2022/06/13 07:16:20;;;;;;;12.43;2.10;;;;;;;21.84;43.54;101014.69;5084286;28;20216;-67
2022/06/13 07:18:48;;;;;;;6.60;2.20;;;;;;;21.86;42.81;101006.41;5082999;28;20225;-66
2022/06/13 07:21:16;;;;;;;6.60;2.27;;;;;;;21.90;42.97;101016.56;5076421;28;20245;-66
2022/06/13 07:23:44;;;;;;;6.77;1.77;;;;;;;21.94;43.03;101019.69;5087502;28;20209;-66
2022/06/13 07:26:12;;;;;;;8.20;2.40;;;;;;;21.97;42.85;101014.72;5086197;28;20230;-66
2022/06/13 07:28:40;;;;;;;6.17;1.87;;;;;;;22.01;42.29;101020.53;5084371;28;20219;-66
2022/06/13 07:31:17;;;;;;;5.23;1.60;;;;;;;22.04;41.28;101020.13;5079412;28;20239;-66
2022/06/13 07:33:46;;;;;;;9.07;1.97;;;;;;;22.07;40.41;101025.94;5086333;28;20206;-65
2022/06/13 07:36:13;;;;;;;6.07;2.00;;;;;;;22.11;40.01;101021.75;5088966;28;20655;-67
2022/06/13 07:38:41;;;;;;;5.83;1.70;;;;;;;22.11;40.63;101018.22;5084991;28;20416;-65
2022/06/13 07:41:15;;;;;;;7.13;2.00;;;;;;;22.16;40.62;101023.84;5088598;28;20210;-68
2022/06/13 07:43:44;;;;;;;5.23;1.60;;;;;;;22.16;39.33;101023.03;5084925;28;20205;-68
2022/06/13 07:46:14;;;;;;;8.70;1.70;;;;;;;22.13;38.29;101018.84;5086703;28;20217;-67
2022/06/13 07:48:42;;;;;;;4.77;1.50;;;;;;;22.15;38.66;101024.88;5085318;28;20237;-67
2022/06/13 07:51:10;;;;;;;6.73;1.53;;;;;;;22.21;38.55;101023.19;5074624;28;20324;-65
2022/06/13 07:53:38;;;;;;;8.57;1.90;;;;;;;22.26;38.88;101020.69;5076765;28;20309;-67
2022/06/13 07:56:27;;;;;;;5.60;2.00;;;;;;;22.27;38.62;101027.75;5078277;28;20215;-66
2022/06/13 07:58:55;;;;;;;4.90;1.60;;;;;;;22.32;38.26;101023.41;5074914;28;21436;-67
2022/06/13 08:01:25;;;;;;;6.40;1.60;;;;;;;22.42;37.77;101022.97;5082660;28;20729;-67
2022/06/13 08:03:54;;;;;;;3.03;1.17;;;;;;;22.47;37.68;101028.53;5085000;28;20207;-65
2022/06/13 08:06:23;;;;;;;4.60;1.60;;;;;;;22.49;37.71;101029.16;5070171;28;20306;-66
2022/06/13 08:08:52;;;;;;;8.27;2.10;;;;;;;22.53;37.90;101033.09;5083063;28;20592;-67
2022/06/13 08:11:26;;;;;;;4.07;1.77;;;;;;;22.63;38.31;101032.63;5073497;28;20226;-66
2022/06/13 08:13:54;;;;;;;8.27;2.15;;;;;;;22.68;38.18;101028.28;5081949;28;20244;-67
2022/06/13 08:16:24;;;;;;;7.25;1.85;;;;;;;22.72;38.19;101029.50;5075900;28;20202;-68
2022/06/13 08:18:53;;;;;;;7.05;1.70;;;;;;;22.77;38.39;101024.31;5068244;28;20225;-66
2022/06/13 08:21:23;;;;;;;4.68;1.40;;;;;;;22.88;38.45;101029.03;5063469;28;20221;-66
2022/06/13 08:23:54;;;;;;;6.30;1.80;;;;;;;22.94;38.56;101032.75;5083309;28;20595;-66
2022/06/13 08:26:22;;;;;;;6.68;2.33;;;;;;;23.01;38.49;101032.72;5089882;28;20301;-67
2022/06/13 08:28:50;;;;;;;6.70;1.83;;;;;;;23.11;38.59;101038.50;5092420;28;20254;-67
2022/06/13 08:31:21;;;;;;;5.85;1.75;;;;;;;23.17;37.50;101029.50;5089030;28;20212;-66
2022/06/13 08:33:50;;;;;;;8.50;2.38;;;;;;;23.20;37.90;101021.81;5090979;28;20206;-67
2022/06/13 08:36:21;;;;;;;5.43;1.77;;;;;;;23.22;37.84;101035.09;5086512;28;20206;-68
2022/06/13 08:38:49;;;;;;;6.88;1.83;;;;;;;23.27;36.95;101024.47;5090568;28;20290;-68
2022/06/13 08:41:30;;;;;;;4.45;1.52;;;;;;;23.29;37.47;101030.50;5092148;28;20644;-67
2022/06/13 08:44:09;;;;;;;6.93;2.08;;;;;;;23.31;37.23;101028.38;5086578;28;20248;-67
2022/06/13 08:46:50;;;;;;;7.78;2.10;;;;;;;23.41;37.53;101033.31;5090502;28;20202;-67
2022/06/13 08:49:28;;;;;;;6.22;1.65;;;;;;;23.48;37.28;101036.81;5088274;28;20600;-67
2022/06/13 08:52:07;;;;;;;5.95;2.20;;;;;;;23.48;36.23;101034.13;5089598;28;20210;-68
2022/06/13 08:54:37;;;;;;;9.25;2.15;;;;;;;23.52;36.68;101036.19;5085032;28;20203;-68
2022/06/13 08:57:09;;;;;;;7.80;2.00;;;;;;;23.55;37.15;101038.47;5089521;28;20640;-66
2022/06/13 08:59:42;;;;;;;7.40;2.00;;;;;;;23.66;37.64;101036.91;5092337;28;20242;-66
2022/06/13 09:02:17;;;;;;;8.45;1.88;;;;;;;23.73;36.84;101042.28;5087314;28;20203;-66
2022/06/13 09:04:54;;;;;;;3.83;1.65;;;;;;;23.78;35.85;101045.97;5089219;28;20302;-67
2022/06/13 09:07:29;;;;;;;5.20;1.63;;;;;;;23.82;35.49;101035.53;5085944;28;20203;-68
2022/06/13 09:10:02;;;;;;;7.45;2.40;;;;;;;23.80;34.94;101052.00;5086949;28;20605;-67
2022/06/13 09:12:41;;;;;;;9.70;2.35;;;;;;;23.91;35.80;101045.88;5084643;28;20970;-69
2022/06/13 09:15:13;;;;;;;6.57;1.50;;;;;;;23.95;34.39;101051.66;5083154;28;20635;-68
2022/06/13 09:17:50;;;;;;;8.43;1.90;;;;;;;24.05;34.35;101046.56;5085382;28;20587;-69
2022/06/13 09:20:28;;;;;;;4.20;1.80;;;;;;;24.18;34.36;101051.06;5082817;28;20238;-69
2022/06/13 09:23:01;;;;;;;5.47;1.48;;;;;;;24.19;34.60;101053.50;5086151;28;20211;-69
2022/06/13 09:25:40;;;;;;;6.68;1.77;;;;;;;24.31;34.31;101046.34;5086846;28;20256;-68
2022/06/13 09:28:15;;;;;;;6.32;2.03;;;;;;;24.29;34.14;101048.44;5082118;28;20226;-69
2022/06/13 09:30:48;;;;;;;8.20;1.98;;;;;;;24.30;34.58;101055.53;5083262;28;20309;-67
2022/06/13 09:33:21;;;;;;;9.93;2.08;;;;;;;24.24;34.30;101053.72;5083727;28;20217;-68
2022/06/13 09:35:57;;;;;;;5.82;1.70;;;;;;;24.40;34.40;101051.47;5088019;28;20264;-68
2022/06/13 09:38:28;;;;;;;4.90;1.60;;;;;;;24.30;34.89;101060.94;5089874;28;20203;-68
2022/06/13 09:41:06;;;;;;;7.38;2.05;;;;;;;24.52;34.89;101055.09;5091262;28;20203;-68
2022/06/13 09:43:44;;;;;;;5.10;1.55;;;;;;;24.64;33.88;101053.28;5088054;28;20918;-68
2022/06/13 09:46:22;;;;;;;7.40;1.98;;;;;;;24.84;33.16;101040.31;5087122;28;20267;-67
2022/06/13 09:49:02;;;;;;;5.57;1.55;;;;;;;24.73;32.81;101044.59;5086941;28;20252;-68
2022/06/13 09:51:42;;;;;;;3.17;1.45;;;;;;;24.46;32.85;101056.81;5088761;28;20392;-67
2022/06/13 09:54:18;;;;;;;5.85;1.90;;;;;;;24.26;33.51;101061.63;5082756;28;20201;-68
2022/06/13 09:56:58;;;;;;;5.88;1.77;;;;;;;24.16;33.59;101066.69;5080056;28;20647;-68
2022/06/13 09:59:38;;;;;;;4.55;1.77;;;;;;;24.13;32.54;101054.41;5081293;28;20293;-68
2022/06/13 10:02:14;;;;;;;4.85;1.70;;;;;;;24.31;32.07;101059.91;5081934;28;20213;-69
2022/06/13 10:04:51;;;;;;;7.15;1.60;;;;;;;24.50;32.19;101059.91;5083260;28;20202;-67
2022/06/13 10:07:27;;;;;;;6.38;1.90;;;;;;;24.56;31.56;101064.44;5081835;28;20628;-67
2022/06/13 10:10:03;;;;;;;6.03;1.80;;;;;;;24.69;31.43;101054.28;5082706;28;20288;-69
2022/06/13 10:12:42;;;;;;;6.32;2.03;;;;;;;24.74;31.26;101059.00;5081482;28;20204;-67
2022/06/13 10:15:28;;;;;;;5.43;1.60;;;;;;;24.80;32.21;101054.56;5084316;28;20301;-68
2022/06/13 10:18:22;;;;;;;5.22;1.55;;;;;;;25.03;32.50;101058.25;5081043;28;20213;-67
2022/06/13 10:20:54;;;;;;;8.55;1.83;;;;;;;25.00;31.90;101053.28;5081263;28;20214;-67
2022/06/13 10:23:37;;;;;;;4.70;1.33;;;;;;;24.96;32.15;101048.56;5083225;28;20234;-67
2022/06/13 10:26:16;;;;;;;5.30;1.63;;;;;;;25.02;32.31;101045.75;5084943;28;20263;-68
2022/06/13 10:29:09;;;;;;;4.95;1.83;;;;;;;24.99;31.92;101048.91;5084260;28;20218;-67
2022/06/13 10:31:54;;;;;;;6.32;1.88;;;;;;;24.84;32.58;101059.28;5081133;28;20233;-68
2022/06/13 10:34:28;;;;;;;3.83;1.50;;;;;;;24.79;32.77;101053.75;5077838;28;20206;-69
2022/06/13 10:37:10;;;;;;;6.18;1.90;;;;;;;25.00;33.01;101047.84;5081858;28;20454;-69
2022/06/13 10:39:41;;;;;;;6.00;1.80;;;;;;;25.07;33.42;101045.03;5082532;28;20630;-66
2022/06/13 10:42:17;;;;;;;6.78;2.20;;;;;;;25.08;33.26;101046.69;5081058;28;20211;-66
2022/06/13 10:44:45;;;;;;;3.40;1.58;;;;;;;24.98;35.94;101044.53;5083574;28;20211;-66
2022/06/13 10:47:21;;;;;;;6.03;1.63;;;;;;;24.85;33.24;101046.56;5085511;28;20700;-67
2022/06/13 10:49:54;;;;;;;43.90;3.78;;;;;;;24.84;34.38;101047.63;5086766;28;20416;-68
2022/06/13 10:52:25;;;;;;;9.40;1.98;;;;;;;24.74;33.32;101040.00;5084962;28;20238;-68
2022/06/13 10:54:57;;;;;;;3.50;1.70;;;;;;;24.82;33.59;101036.16;5085363;28;20293;-66
2022/06/13 10:57:31;;;;;;;8.93;1.73;;;;;;;24.92;34.96;101031.88;5086848;28;20538;-71
2022/06/13 11:00:12;;;;;;;10.07;1.58;;;;;;;24.96;33.26;101043.94;5079382;28;20206;-67
2022/06/13 11:02:40;;;;;;;4.50;1.55;;;;;;;24.90;32.46;101031.25;5085289;28;20234;-70
2022/06/13 11:05:11;;;;;;;8.27;1.98;;;;;;;24.84;32.87;101043.03;5086458;28;20217;-70
2022/06/13 11:07:46;;;;;;;5.82;1.60;;;;;;;24.86;33.73;101043.63;5080685;28;20289;-67
2022/06/13 11:10:27;;;;;;;5.28;1.88;;;;;;;24.84;33.50;101034.06;5081809;28;20304;-71
2022/06/13 11:12:55;;;;;;;5.75;2.05;;;;;;;24.80;32.82;101028.28;5082465;28;20198;-70
2022/06/13 11:24:12;;;;;;;6.68;1.92;;;;;;;25.16;32.76;101032.81;5078902;28;20207;-68
2022/06/13 11:29:35;;;;;;;6.93;1.38;;;;;;;24.96;31.61;101022.25;5081917;28;20234;-70
2022/06/13 11:32:06;;;;;;;4.63;1.48;;;;;;;25.21;31.34;101018.56;5080711;28;20765;-69
2022/06/13 11:34:38;;;;;;;8.52;3.13;;;;;;;25.37;31.37;101015.19;5078051;28;20271;-69
2022/06/13 11:37:17;;;;;;;12.82;7.10;;;;;;;25.62;31.02;101025.88;5078857;28;20615;-69
2022/06/13 11:39:48;;;;;;;13.98;4.78;;;;;;;25.68;30.52;101019.53;5078238;28;20203;-68
2022/06/13 11:42:20;;;;;;;13.77;5.13;;;;;;;25.81;30.62;101017.41;5084192;28;20618;-68
2022/06/13 11:44:53;;;;;;;87.80;33.08;;;;;;;26.03;32.24;101012.25;5080476;28;20715;-68
2022/06/13 11:47:22;;;;;;;22.33;7.93;;;;;;;26.01;30.02;101018.97;5079397;28;20209;-67
2022/06/13 11:49:55;;;;;;;32.67;11.88;;;;;;;26.11;30.46;101024.63;5080042;28;20231;-69
2022/06/13 11:55:21;;;;;;;10.52;3.28;;;;;;;25.94;29.46;101024.53;5085915;28;20297;-70
2022/06/13 11:57:56;;;;;;;6.90;1.90;;;;;;;25.94;29.27;101015.53;5080208;28;20212;-68
2022/06/13 12:00:34;;;;;;;16.10;3.95;;;;;;;26.08;30.83;101006.06;5080544;28;21713;-69
2022/06/13 12:03:19;;;;;;;8.65;2.80;;;;;;;26.22;30.92;101002.84;5078647;28;20213;-69
2022/06/13 12:05:51;;;;;;;6.50;1.65;;;;;;;26.31;30.39;101003.34;5077912;28;20615;-69
2022/06/13 12:08:23;;;;;;;9.13;2.45;;;;;;;26.31;30.87;100992.47;5083403;28;20206;-69
2022/06/13 12:10:58;;;;;;;5.13;2.00;;;;;;;26.29;30.01;100993.81;5080829;28;22396;-69
2022/06/13 12:13:30;;;;;;;6.15;2.03;;;;;;;26.27;29.99;100999.47;5081541;28;20208;-69
2022/06/13 12:16:17;;;;;;;8.55;2.20;;;;;;;26.12;30.41;100999.13;5084716;28;20648;-68
2022/06/13 12:18:53;;;;;;;4.95;2.15;;;;;;;25.97;30.66;100996.03;5081165;28;20203;-68